sensor_id;sensor_type;location;lat;lon;timestamp;pressure;altitude;pressure_sealevel;temperature;humidity
46724;BME280;32463;48.298;11.620;2022-12-29T00:00:23;96106.75;;;0.72;100.00
46724;BME280;32463;48.298;11.620;2022-12-29T00:02:50;96104.81;;;0.88;100.00
46724;BME280;32463;48.298;11.620;2022-12-29T00:05:18;96115.06;;;1.12;100.00
46724;BME280;32463;48.298;11.620;2022-12-29T00:07:44;96117.91;;;1.20;100.00
46724;BME280;32463;48.298;11.620;2022-12-29T00:10:14;96109.13;;;1.11;100.00
46724;BME280;32463;48.298;11.620;2022-12-29T00:12:44;96122.41;;;1.16;100.00
46724;BME280;32463;48.298;11.620;2022-12-29T00:15:28;96127.19;;;1.21;100.00
46724;BME280;32463;48.298;11.620;2022-12-29T00:18:08;96105.06;;;1.09;100.00
46724;BME280;32463;48.298;11.620;2022-12-29T00:20:37;96086.41;;;0.95;100.00
46724;BME280;32463;48.298;11.620;2022-12-29T00:23:22;96101.09;;;1.05;100.00
46724;BME280;32463;48.298;11.620;2022-12-29T00:26:13;96119.34;;;1.11;100.00
46724;BME280;32463;48.298;11.620;2022-12-29T00:29:10;96090.69;;;0.95;100.00
46724;BME280;32463;48.298;11.620;2022-12-29T00:31:57;96098.75;;;1.01;100.00
46724;BME280;32463;48.298;11.620;2022-12-29T00:34:41;96103.53;;;1.06;100.00
46724;BME280;32463;48.298;11.620;2022-12-29T00:37:25;96102.81;;;1.04;100.00
46724;BME280;32463;48.298;11.620;2022-12-29T00:40:06;96095.06;;;0.93;100.00
46724;BME280;32463;48.298;11.620;2022-12-29T00:42:51;96102.97;;;0.90;100.00
46724;BME280;32463;48.298;11.620;2022-12-29T00:45:35;96089.63;;;0.74;100.00
46724;BME280;32463;48.298;11.620;2022-12-29T00:48:02;96117.38;;;0.78;100.00
46724;BME280;32463;48.298;11.620;2022-12-29T00:50:31;96104.72;;;0.64;100.00
46724;BME280;32463;48.298;11.620;2022-12-29T00:52:57;96110.16;;;0.59;100.00
46724;BME280;32463;48.298;11.620;2022-12-29T00:55:23;96103.72;;;0.41;100.00
46724;BME280;32463;48.298;11.620;2022-12-29T00:57:50;96097.41;;;0.21;100.00
46724;BME280;32463;48.298;11.620;2022-12-29T01:00:17;96114.63;;;0.18;100.00
46724;BME280;32463;48.298;11.620;2022-12-29T01:02:44;96111.03;;;0.08;100.00
46724;BME280;32463;48.298;11.620;2022-12-29T01:05:11;96093.72;;;0.00;100.00
46724;BME280;32463;48.298;11.620;2022-12-29T01:07:39;96117.78;;;0.09;100.00
46724;BME280;32463;48.298;11.620;2022-12-29T01:10:07;96096.03;;;-0.10;100.00
46724;BME280;32463;48.298;11.620;2022-12-29T01:12:36;96108.19;;;-0.01;100.00
46724;BME280;32463;48.298;11.620;2022-12-29T01:15:12;96127.97;;;0.09;100.00
46724;BME280;32463;48.298;11.620;2022-12-29T01:17:39;96123.25;;;0.03;100.00
46724;BME280;32463;48.298;11.620;2022-12-29T01:20:06;96114.31;;;-0.03;100.00
46724;BME280;32463;48.298;11.620;2022-12-29T01:22:32;96122.88;;;0.09;100.00
46724;BME280;32463;48.298;11.620;2022-12-29T01:25:02;96113.47;;;-0.04;100.00
46724;BME280;32463;48.298;11.620;2022-12-29T01:27:29;96114.91;;;0.00;100.00
46724;BME280;32463;48.298;11.620;2022-12-29T01:29:55;96117.34;;;0.02;100.00
46724;BME280;32463;48.298;11.620;2022-12-29T01:32:22;96118.06;;;0.04;100.00
46724;BME280;32463;48.298;11.620;2022-12-29T01:34:48;96131.94;;;0.13;100.00
46724;BME280;32463;48.298;11.620;2022-12-29T01:37:15;96133.47;;;0.15;100.00
46724;BME280;32463;48.298;11.620;2022-12-29T01:39:41;96109.78;;;0.00;100.00
46724;BME280;32463;48.298;11.620;2022-12-29T01:42:19;96121.75;;;0.13;100.00
46724;BME280;32463;48.298;11.620;2022-12-29T01:44:51;96110.41;;;0.04;100.00
46724;BME280;32463;48.298;11.620;2022-12-29T01:49:57;96108.78;;;-0.10;100.00
46724;BME280;32463;48.298;11.620;2022-12-29T01:52:27;96094.28;;;-0.22;100.00
46724;BME280;32463;48.298;11.620;2022-12-29T01:54:56;96104.06;;;-0.16;100.00
46724;BME280;32463;48.298;11.620;2022-12-29T01:57:34;96097.63;;;-0.21;100.00
46724;BME280;32463;48.298;11.620;2022-12-29T02:00:06;96086.09;;;-0.27;100.00
46724;BME280;32463;48.298;11.620;2022-12-29T02:02:34;96087.97;;;-0.16;100.00
46724;BME280;32463;48.298;11.620;2022-12-29T02:05:09;96085.44;;;-0.16;100.00
46724;BME280;32463;48.298;11.620;2022-12-29T02:07:37;96085.84;;;-0.10;100.00
46724;BME280;32463;48.298;11.620;2022-12-29T02:10:04;96085.75;;;0.05;100.00
46724;BME280;32463;48.298;11.620;2022-12-29T02:12:31;96094.13;;;0.07;100.00
46724;BME280;32463;48.298;11.620;2022-12-29T02:15:00;96082.81;;;0.11;100.00
46724;BME280;32463;48.298;11.620;2022-12-29T02:43:59;96063.88;;;0.89;100.00
46724;BME280;32463;48.298;11.620;2022-12-29T02:46:40;96066.31;;;0.91;100.00
46724;BME280;32463;48.298;11.620;2022-12-29T02:51:55;96082.19;;;1.07;100.00
46724;BME280;32463;48.298;11.620;2022-12-29T02:54:24;96081.78;;;1.13;100.00
46724;BME280;32463;48.298;11.620;2022-12-29T02:59:43;96050.81;;;1.42;100.00
46724;BME280;32463;48.298;11.620;2022-12-29T03:10:23;96064.94;;;2.05;100.00
46724;BME280;32463;48.298;11.620;2022-12-29T03:13:03;96060.31;;;2.21;100.00
46724;BME280;32463;48.298;11.620;2022-12-29T03:15:58;96052.31;;;2.36;100.00
46724;BME280;32463;48.298;11.620;2022-12-29T03:18:39;96026.03;;;2.34;100.00
46724;BME280;32463;48.298;11.620;2022-12-29T03:21:18;96048.22;;;2.79;100.00
46724;BME280;32463;48.298;11.620;2022-12-29T03:23:48;96051.19;;;3.17;100.00
46724;BME280;32463;48.298;11.620;2022-12-29T03:26:17;96045.75;;;3.43;100.00
46724;BME280;32463;48.298;11.620;2022-12-29T03:28:50;96035.94;;;3.59;100.00
46724;BME280;32463;48.298;11.620;2022-12-29T03:31:19;96041.44;;;3.75;98.57
46724;BME280;32463;48.298;11.620;2022-12-29T03:33:46;96014.19;;;3.74;96.17
46724;BME280;32463;48.298;11.620;2022-12-29T03:36:21;96028.44;;;4.09;91.92
46724;BME280;32463;48.298;11.620;2022-12-29T03:38:59;96034.56;;;4.17;89.95
46724;BME280;32463;48.298;11.620;2022-12-29T03:41:30;96019.94;;;4.08;89.66
46724;BME280;32463;48.298;11.620;2022-12-29T03:43:57;96015.28;;;4.23;85.81
46724;BME280;32463;48.298;11.620;2022-12-29T03:46:24;96013.16;;;4.28;87.13
46724;BME280;32463;48.298;11.620;2022-12-29T03:48:51;96024.25;;;4.38;85.84
46724;BME280;32463;48.298;11.620;2022-12-29T03:51:17;96023.00;;;4.53;83.42
46724;BME280;32463;48.298;11.620;2022-12-29T03:53:44;96016.25;;;4.62;81.62
46724;BME280;32463;48.298;11.620;2022-12-29T03:56:10;96024.69;;;4.73;80.91
46724;BME280;32463;48.298;11.620;2022-12-29T03:58:37;96023.91;;;4.83;79.48
46724;BME280;32463;48.298;11.620;2022-12-29T04:01:04;96017.97;;;4.92;78.22
46724;BME280;32463;48.298;11.620;2022-12-29T04:03:31;96027.19;;;5.04;77.60
46724;BME280;32463;48.298;11.620;2022-12-29T04:05:58;96018.81;;;5.02;76.99
46724;BME280;32463;48.298;11.620;2022-12-29T04:08:24;96020.72;;;5.10;76.47
46724;BME280;32463;48.298;11.620;2022-12-29T04:10:51;96026.41;;;5.23;74.01
46724;BME280;32463;48.298;11.620;2022-12-29T04:13:18;96036.72;;;5.32;74.98
46724;BME280;32463;48.298;11.620;2022-12-29T04:15:44;96015.06;;;5.25;74.43
46724;BME280;32463;48.298;11.620;2022-12-29T04:18:12;96039.59;;;5.49;72.35
46724;BME280;32463;48.298;11.620;2022-12-29T04:20:39;96026.19;;;5.45;72.18
46724;BME280;32463;48.298;11.620;2022-12-29T04:23:23;96018.59;;;5.44;71.98
46724;BME280;32463;48.298;11.620;2022-12-29T04:25:50;96010.22;;;5.41;71.02
46724;BME280;32463;48.298;11.620;2022-12-29T04:28:16;96025.91;;;5.58;70.81
46724;BME280;32463;48.298;11.620;2022-12-29T04:30:44;96028.06;;;5.62;70.92
46724;BME280;32463;48.298;11.620;2022-12-29T04:33:10;96012.34;;;5.56;70.95
46724;BME280;32463;48.298;11.620;2022-12-29T04:35:37;96006.94;;;5.59;69.91
46724;BME280;32463;48.298;11.620;2022-12-29T04:38:04;96016.44;;;5.68;69.74
46724;BME280;32463;48.298;11.620;2022-12-29T04:40:30;96021.84;;;5.74;68.81
46724;BME280;32463;48.298;11.620;2022-12-29T04:42:57;95991.53;;;5.68;68.38
46724;BME280;32463;48.298;11.620;2022-12-29T04:45:24;96010.72;;;5.84;68.62
46724;BME280;32463;48.298;11.620;2022-12-29T04:47:50;96010.22;;;5.80;69.45
46724;BME280;32463;48.298;11.620;2022-12-29T04:50:17;96011.66;;;5.83;68.59
46724;BME280;32463;48.298;11.620;2022-12-29T04:52:44;96011.53;;;5.84;68.16
46724;BME280;32463;48.298;11.620;2022-12-29T04:55:11;95998.81;;;5.92;67.13
46724;BME280;32463;48.298;11.620;2022-12-29T04:57:37;95982.56;;;5.82;67.72
46724;BME280;32463;48.298;11.620;2022-12-29T05:00:05;96009.66;;;6.05;66.70
46724;BME280;32463;48.298;11.620;2022-12-29T05:02:31;96022.13;;;6.00;67.28
46724;BME280;32463;48.298;11.620;2022-12-29T05:04:58;96001.53;;;6.00;65.89
46724;BME280;32463;48.298;11.620;2022-12-29T05:07:25;96018.31;;;6.04;66.41
46724;BME280;32463;48.298;11.620;2022-12-29T05:09:51;96003.44;;;5.98;65.87
46724;BME280;32463;48.298;11.620;2022-12-29T05:12:18;96027.25;;;6.10;66.06
46724;BME280;32463;48.298;11.620;2022-12-29T05:14:44;96017.78;;;6.11;65.44
46724;BME280;32463;48.298;11.620;2022-12-29T05:17:11;96009.66;;;6.05;65.11
46724;BME280;32463;48.298;11.620;2022-12-29T05:19:37;96003.94;;;6.12;64.68
46724;BME280;32463;48.298;11.620;2022-12-29T05:22:04;96015.97;;;6.21;64.35
46724;BME280;32463;48.298;11.620;2022-12-29T05:24:31;96015.16;;;6.20;63.81
46724;BME280;32463;48.298;11.620;2022-12-29T05:26:58;96014.47;;;6.28;64.14
46724;BME280;32463;48.298;11.620;2022-12-29T05:29:24;96024.34;;;6.32;63.87
46724;BME280;32463;48.298;11.620;2022-12-29T05:31:51;96009.84;;;6.31;63.55
46724;BME280;32463;48.298;11.620;2022-12-29T05:34:17;96003.22;;;6.29;63.54
46724;BME280;32463;48.298;11.620;2022-12-29T05:36:44;96004.81;;;6.39;62.93
46724;BME280;32463;48.298;11.620;2022-12-29T05:39:11;95995.75;;;6.35;62.41
46724;BME280;32463;48.298;11.620;2022-12-29T05:41:38;95991.28;;;6.37;62.38
46724;BME280;32463;48.298;11.620;2022-12-29T05:44:06;95998.13;;;6.47;61.95
46724;BME280;32463;48.298;11.620;2022-12-29T05:46:33;95996.22;;;6.49;62.07
46724;BME280;32463;48.298;11.620;2022-12-29T05:48:59;95994.72;;;6.56;61.27
46724;BME280;32463;48.298;11.620;2022-12-29T05:51:27;96014.88;;;6.70;61.03
46724;BME280;32463;48.298;11.620;2022-12-29T05:53:54;96006.13;;;6.81;60.25
46724;BME280;32463;48.298;11.620;2022-12-29T05:56:21;96003.69;;;6.79;60.84
46724;BME280;32463;48.298;11.620;2022-12-29T05:58:47;96005.59;;;6.77;60.49
46724;BME280;32463;48.298;11.620;2022-12-29T06:01:14;96007.47;;;6.85;59.89
46724;BME280;32463;48.298;11.620;2022-12-29T06:03:41;95993.66;;;6.76;60.09
46724;BME280;32463;48.298;11.620;2022-12-29T06:06:07;96006.31;;;6.97;59.45
46724;BME280;32463;48.298;11.620;2022-12-29T06:08:34;96005.97;;;7.09;58.19
46724;BME280;32463;48.298;11.620;2022-12-29T06:11:00;96011.91;;;7.10;58.45
46724;BME280;32463;48.298;11.620;2022-12-29T06:13:27;96000.00;;;7.09;58.36
46724;BME280;32463;48.298;11.620;2022-12-29T06:15:54;96000.22;;;7.16;57.47
46724;BME280;32463;48.298;11.620;2022-12-29T06:18:20;96016.97;;;7.29;57.40
46724;BME280;32463;48.298;11.620;2022-12-29T06:20:47;95996.88;;;7.05;57.91
46724;BME280;32463;48.298;11.620;2022-12-29T06:23:14;96007.91;;;7.25;56.86
46724;BME280;32463;48.298;11.620;2022-12-29T06:25:41;96006.06;;;7.35;56.19
46724;BME280;32463;48.298;11.620;2022-12-29T06:28:08;95988.09;;;7.43;55.62
46724;BME280;32463;48.298;11.620;2022-12-29T06:30:36;95991.25;;;7.37;55.65
46724;BME280;32463;48.298;11.620;2022-12-29T06:33:03;96008.88;;;7.60;55.27
46724;BME280;32463;48.298;11.620;2022-12-29T06:35:30;95986.38;;;7.34;55.32
46724;BME280;32463;48.298;11.620;2022-12-29T06:37:57;96007.19;;;7.51;55.36
46724;BME280;32463;48.298;11.620;2022-12-29T06:40:23;95978.34;;;7.37;55.43
46724;BME280;32463;48.298;11.620;2022-12-29T06:42:50;95982.50;;;7.30;56.04
46724;BME280;32463;48.298;11.620;2022-12-29T06:45:17;95994.13;;;7.34;55.74
46724;BME280;32463;48.298;11.620;2022-12-29T06:47:43;95983.38;;;7.21;56.11
46724;BME280;32463;48.298;11.620;2022-12-29T06:50:10;95990.63;;;7.08;56.99
46724;BME280;32463;48.298;11.620;2022-12-29T06:52:37;95998.47;;;7.16;56.65
46724;BME280;32463;48.298;11.620;2022-12-29T06:55:04;95995.72;;;7.00;57.35
46724;BME280;32463;48.298;11.620;2022-12-29T06:57:31;95995.88;;;7.16;56.76
46724;BME280;32463;48.298;11.620;2022-12-29T06:59:58;96017.69;;;7.39;56.05
46724;BME280;32463;48.298;11.620;2022-12-29T07:02:25;96010.84;;;7.66;55.40
46724;BME280;32463;48.298;11.620;2022-12-29T07:04:52;96006.97;;;7.62;56.40
46724;BME280;32463;48.298;11.620;2022-12-29T07:07:22;96007.25;;;7.59;56.80
46724;BME280;32463;48.298;11.620;2022-12-29T07:09:49;96013.28;;;7.50;57.28
46724;BME280;32463;48.298;11.620;2022-12-29T07:12:18;96032.59;;;7.46;58.03
46724;BME280;32463;48.298;11.620;2022-12-29T07:14:48;96017.31;;;7.34;56.94
46724;BME280;32463;48.298;11.620;2022-12-29T07:17:17;96032.44;;;7.29;56.88
46724;BME280;32463;48.298;11.620;2022-12-29T07:19:44;96023.84;;;7.11;57.55
46724;BME280;32463;48.298;11.620;2022-12-29T07:22:10;96029.78;;;6.94;58.89
46724;BME280;32463;48.298;11.620;2022-12-29T07:24:46;96029.41;;;6.89;59.49
46724;BME280;32463;48.298;11.620;2022-12-29T07:27:13;96052.41;;;7.00;58.95
46724;BME280;32463;48.298;11.620;2022-12-29T07:29:43;96058.94;;;6.94;59.09
46724;BME280;32463;48.298;11.620;2022-12-29T07:32:10;96026.47;;;6.74;58.70
46724;BME280;32463;48.298;11.620;2022-12-29T07:34:36;96052.78;;;6.78;58.93
46724;BME280;32463;48.298;11.620;2022-12-29T07:37:05;96067.09;;;6.90;58.62
46724;BME280;32463;48.298;11.620;2022-12-29T07:39:31;96049.44;;;6.67;59.53
46724;BME280;32463;48.298;11.620;2022-12-29T07:41:58;96051.34;;;6.65;59.31
46724;BME280;32463;48.298;11.620;2022-12-29T07:44:25;96054.47;;;6.59;60.16
46724;BME280;32463;48.298;11.620;2022-12-29T07:46:51;96046.78;;;6.50;61.09
46724;BME280;32463;48.298;11.620;2022-12-29T07:49:18;96052.06;;;6.48;61.51
46724;BME280;32463;48.298;11.620;2022-12-29T07:51:44;96046.63;;;6.61;60.59
46724;BME280;32463;48.298;11.620;2022-12-29T07:54:11;96049.31;;;6.69;60.51
46724;BME280;32463;48.298;11.620;2022-12-29T07:56:38;96041.78;;;6.75;60.29
46724;BME280;32463;48.298;11.620;2022-12-29T07:59:04;96046.00;;;6.76;60.48
46724;BME280;32463;48.298;11.620;2022-12-29T08:01:31;96047.44;;;6.89;59.59
46724;BME280;32463;48.298;11.620;2022-12-29T08:03:57;96047.28;;;7.00;59.00
46724;BME280;32463;48.298;11.620;2022-12-29T08:06:24;96058.59;;;7.07;58.70
46724;BME280;32463;48.298;11.620;2022-12-29T08:08:50;96054.13;;;7.09;58.49
46724;BME280;32463;48.298;11.620;2022-12-29T08:11:17;96055.56;;;7.21;57.23
46724;BME280;32463;48.298;11.620;2022-12-29T08:13:43;96051.44;;;7.28;57.20
46724;BME280;32463;48.298;11.620;2022-12-29T08:16:10;96063.03;;;7.42;57.19
46724;BME280;32463;48.298;11.620;2022-12-29T08:18:36;96057.44;;;7.64;56.89
46724;BME280;32463;48.298;11.620;2022-12-29T08:21:03;96052.88;;;7.58;56.78
46724;BME280;32463;48.298;11.620;2022-12-29T08:23:31;96059.84;;;7.66;57.29
46724;BME280;32463;48.298;11.620;2022-12-29T08:26:03;96048.97;;;7.72;56.88
46724;BME280;32463;48.298;11.620;2022-12-29T08:28:31;96054.28;;;7.88;56.44
46724;BME280;32463;48.298;11.620;2022-12-29T08:30:59;96054.03;;;7.99;55.68
46724;BME280;32463;48.298;11.620;2022-12-29T08:33:27;96037.56;;;8.00;56.21
46724;BME280;32463;48.298;11.620;2022-12-29T08:35:59;96036.31;;;8.04;55.76
46724;BME280;32463;48.298;11.620;2022-12-29T08:38:27;96044.19;;;8.21;54.59
46724;BME280;32463;48.298;11.620;2022-12-29T08:40:56;96062.84;;;8.32;55.01
46724;BME280;32463;48.298;11.620;2022-12-29T08:43:23;96060.78;;;8.36;55.07
46724;BME280;32463;48.298;11.620;2022-12-29T08:45:50;96065.66;;;8.39;54.98
46724;BME280;32463;48.298;11.620;2022-12-29T08:48:17;96064.38;;;8.43;55.03
46724;BME280;32463;48.298;11.620;2022-12-29T08:50:45;96061.66;;;8.44;54.64
46724;BME280;32463;48.298;11.620;2022-12-29T08:53:12;96061.84;;;8.51;53.89
46724;BME280;32463;48.298;11.620;2022-12-29T08:55:38;96063.81;;;8.57;53.48
46724;BME280;32463;48.298;11.620;2022-12-29T08:58:05;96061.22;;;8.57;53.91
46724;BME280;32463;48.298;11.620;2022-12-29T09:00:31;96075.09;;;8.56;54.10
46724;BME280;32463;48.298;11.620;2022-12-29T09:02:58;96067.72;;;8.61;53.39
46724;BME280;32463;48.298;11.620;2022-12-29T09:05:24;96062.66;;;8.77;53.29
46724;BME280;32463;48.298;11.620;2022-12-29T09:07:51;96067.06;;;8.93;52.76
46724;BME280;32463;48.298;11.620;2022-12-29T09:10:17;96080.53;;;9.05;53.32
46724;BME280;32463;48.298;11.620;2022-12-29T09:12:44;96065.22;;;9.11;52.81
46724;BME280;32463;48.298;11.620;2022-12-29T09:15:10;96069.94;;;9.24;52.77
46724;BME280;32463;48.298;11.620;2022-12-29T09:17:37;96073.25;;;9.42;52.11
46724;BME280;32463;48.298;11.620;2022-12-29T09:20:07;96075.22;;;9.57;52.84
46724;BME280;32463;48.298;11.620;2022-12-29T09:22:35;96062.81;;;9.76;52.14
46724;BME280;32463;48.298;11.620;2022-12-29T09:25:02;96073.81;;;9.95;51.97
46724;BME280;32463;48.298;11.620;2022-12-29T09:27:29;96073.69;;;10.21;50.80
46724;BME280;32463;48.298;11.620;2022-12-29T09:29:56;96063.47;;;10.35;50.83
46724;BME280;32463;48.298;11.620;2022-12-29T09:32:22;96072.03;;;10.68;50.65
46724;BME280;32463;48.298;11.620;2022-12-29T09:34:49;96061.81;;;11.14;50.05
46724;BME280;32463;48.298;11.620;2022-12-29T09:37:15;96056.56;;;11.30;48.93
46724;BME280;32463;48.298;11.620;2022-12-29T09:39:42;96048.47;;;11.25;49.36
46724;BME280;32463;48.298;11.620;2022-12-29T09:42:16;96056.34;;;11.40;49.24
46724;BME280;32463;48.298;11.620;2022-12-29T09:45:15;96055.75;;;11.30;49.25
46724;BME280;32463;48.298;11.620;2022-12-29T09:47:44;96059.19;;;11.22;49.46
46724;BME280;32463;48.298;11.620;2022-12-29T09:50:28;96060.22;;;11.05;50.60
46724;BME280;32463;48.298;11.620;2022-12-29T09:53:20;96052.81;;;10.94;51.56
46724;BME280;32463;48.298;11.620;2022-12-29T09:55:50;96045.03;;;10.94;51.94
46724;BME280;32463;48.298;11.620;2022-12-29T10:01:02;96054.28;;;10.96;51.63
46724;BME280;32463;48.298;11.620;2022-12-29T10:12:15;96063.84;;;10.96;50.35
46724;BME280;32463;48.298;11.620;2022-12-29T10:18:01;96074.22;;;10.88;49.05
46724;BME280;32463;48.298;11.620;2022-12-29T10:20:38;96068.41;;;10.77;47.79
46724;BME280;32463;48.298;11.620;2022-12-29T10:23:32;96073.28;;;10.72;48.08
46724;BME280;32463;48.298;11.620;2022-12-29T10:26:01;96070.69;;;10.80;47.68
46724;BME280;32463;48.298;11.620;2022-12-29T10:28:39;96065.19;;;10.75;48.06
46724;BME280;32463;48.298;11.620;2022-12-29T10:31:13;96068.25;;;10.79;47.95
46724;BME280;32463;48.298;11.620;2022-12-29T10:33:43;96070.41;;;10.67;48.60
46724;BME280;32463;48.298;11.620;2022-12-29T10:36:18;96065.53;;;10.64;48.37
46724;BME280;32463;48.298;11.620;2022-12-29T10:38:51;96043.50;;;10.60;47.86
46724;BME280;32463;48.298;11.620;2022-12-29T10:41:34;96047.00;;;10.92;47.52
46724;BME280;32463;48.298;11.620;2022-12-29T10:44:02;96040.72;;;11.17;46.71
46724;BME280;32463;48.298;11.620;2022-12-29T10:46:33;96031.81;;;11.42;45.28
46724;BME280;32463;48.298;11.620;2022-12-29T10:49:00;96031.78;;;11.51;45.60
46724;BME280;32463;48.298;11.620;2022-12-29T10:51:33;96023.59;;;11.62;44.98
46724;BME280;32463;48.298;11.620;2022-12-29T10:54:05;96024.13;;;11.57;44.74
46724;BME280;32463;48.298;11.620;2022-12-29T10:56:42;96016.09;;;11.44;44.11
46724;BME280;32463;48.298;11.620;2022-12-29T10:59:22;96022.59;;;11.40;43.90
46724;BME280;32463;48.298;11.620;2022-12-29T11:07:18;96016.94;;;11.90;43.96
46724;BME280;32463;48.298;11.620;2022-12-29T11:09:46;96020.16;;;12.15;43.51
46724;BME280;32463;48.298;11.620;2022-12-29T11:12:29;96013.03;;;12.46;42.86
46724;BME280;32463;48.298;11.620;2022-12-29T11:15:13;96012.16;;;12.84;42.95
46724;BME280;32463;48.298;11.620;2022-12-29T11:17:48;96009.84;;;13.39;41.96
46724;BME280;32463;48.298;11.620;2022-12-29T11:20:32;96007.69;;;13.64;41.01
46724;BME280;32463;48.298;11.620;2022-12-29T11:23:02;96006.72;;;13.29;40.48
46724;BME280;32463;48.298;11.620;2022-12-29T11:25:28;96008.19;;;12.73;41.94
46724;BME280;32463;48.298;11.620;2022-12-29T11:28:15;96004.19;;;12.18;42.93
46724;BME280;32463;48.298;11.620;2022-12-29T11:30:42;96000.00;;;11.94;43.88
46724;BME280;32463;48.298;11.620;2022-12-29T11:33:09;96010.06;;;11.97;43.59
46724;BME280;32463;48.298;11.620;2022-12-29T11:35:41;96001.13;;;11.77;43.96
46724;BME280;32463;48.298;11.620;2022-12-29T11:38:25;95990.84;;;11.84;45.19
46724;BME280;32463;48.298;11.620;2022-12-29T11:40:52;95994.63;;;11.96;44.64
46724;BME280;32463;48.298;11.620;2022-12-29T11:43:38;95991.69;;;12.51;43.45
46724;BME280;32463;48.298;11.620;2022-12-29T11:46:06;95991.31;;;12.98;42.36
46724;BME280;32463;48.298;11.620;2022-12-29T11:48:38;95986.44;;;13.25;41.85
46724;BME280;32463;48.298;11.620;2022-12-29T11:51:06;95980.25;;;13.11;42.00
46724;BME280;32463;48.298;11.620;2022-12-29T11:53:47;95977.09;;;13.15;42.58
46724;BME280;32463;48.298;11.620;2022-12-29T11:56:32;95991.66;;;13.46;42.27
46724;BME280;32463;48.298;11.620;2022-12-29T11:59:34;95984.25;;;14.13;40.32
46724;BME280;32463;48.298;11.620;2022-12-29T12:04:49;95977.59;;;15.69;37.77
46724;BME280;32463;48.298;11.620;2022-12-29T12:07:22;95979.25;;;16.09;36.92
46724;BME280;32463;48.298;11.620;2022-12-29T12:09:58;95974.16;;;16.80;35.73
46724;BME280;32463;48.298;11.620;2022-12-29T12:13:02;95967.13;;;16.74;35.84
46724;BME280;32463;48.298;11.620;2022-12-29T12:15:25;95964.34;;;15.97;36.43
46724;BME280;32463;48.298;11.620;2022-12-29T12:17:54;95959.94;;;15.77;37.42
46724;BME280;32463;48.298;11.620;2022-12-29T12:20:38;95963.72;;;15.01;40.03
46724;BME280;32463;48.298;11.620;2022-12-29T12:23:30;95951.13;;;14.63;41.41
46724;BME280;32463;48.298;11.620;2022-12-29T12:26:16;95946.25;;;15.01;41.84
46724;BME280;32463;48.298;11.620;2022-12-29T12:29:00;95945.28;;;15.09;40.48
46724;BME280;32463;48.298;11.620;2022-12-29T12:34:02;95937.28;;;15.17;40.86
46724;BME280;32463;48.298;11.620;2022-12-29T12:36:46;95941.28;;;15.13;40.84
46724;BME280;32463;48.298;11.620;2022-12-29T12:39:30;95935.13;;;14.79;41.64
46724;BME280;32463;48.298;11.620;2022-12-29T12:45:50;95932.84;;;14.29;41.74
46724;BME280;32463;48.298;11.620;2022-12-29T12:54:35;95935.72;;;13.85;44.29
46724;BME280;32463;48.298;11.620;2022-12-29T12:57:25;95943.66;;;13.76;45.40
46724;BME280;32463;48.298;11.620;2022-12-29T13:00:14;95940.16;;;13.41;46.42
46724;BME280;32463;48.298;11.620;2022-12-29T13:06:02;95941.84;;;13.13;46.87
46724;BME280;32463;48.298;11.620;2022-12-29T13:08:59;95941.69;;;13.00;48.14
46724;BME280;32463;48.298;11.620;2022-12-29T13:19:14;95934.66;;;12.79;49.45
46724;BME280;32463;48.298;11.620;2022-12-29T13:22:09;95937.78;;;12.74;50.23
46724;BME280;32463;48.298;11.620;2022-12-29T13:24:51;95940.56;;;12.58;51.21
46724;BME280;32463;48.298;11.620;2022-12-29T13:30:03;95925.22;;;12.63;51.83
46724;BME280;32463;48.298;11.620;2022-12-29T13:35:32;95935.84;;;12.47;53.74
46724;BME280;32463;48.298;11.620;2022-12-29T13:38:12;95932.78;;;12.29;55.50
46724;BME280;32463;48.298;11.620;2022-12-29T13:40:45;95930.53;;;12.26;55.42
46724;BME280;32463;48.298;11.620;2022-12-29T13:43:14;95935.47;;;12.21;55.83
46724;BME280;32463;48.298;11.620;2022-12-29T13:45:42;95936.88;;;12.08;56.79
46724;BME280;32463;48.298;11.620;2022-12-29T13:48:17;95937.78;;;12.16;56.44
46724;BME280;32463;48.298;11.620;2022-12-29T13:50:53;95935.63;;;12.04;57.25
46724;BME280;32463;48.298;11.620;2022-12-29T13:59:20;95944.13;;;11.98;57.59
46724;BME280;32463;48.298;11.620;2022-12-29T14:02:11;95939.91;;;11.97;57.83
46724;BME280;32463;48.298;11.620;2022-12-29T14:05:01;95939.81;;;11.91;58.39
46724;BME280;32463;48.298;11.620;2022-12-29T14:07:36;95940.88;;;11.82;59.14
46724;BME280;32463;48.298;11.620;2022-12-29T14:10:04;95933.91;;;11.74;59.46
46724;BME280;32463;48.298;11.620;2022-12-29T14:12:40;95949.91;;;11.63;60.10
46724;BME280;32463;48.298;11.620;2022-12-29T14:17:39;95956.50;;;11.51;60.82
46724;BME280;32463;48.298;11.620;2022-12-29T14:20:19;95947.78;;;11.43;60.75
46724;BME280;32463;48.298;11.620;2022-12-29T14:23:16;95946.97;;;11.43;61.03
46724;BME280;32463;48.298;11.620;2022-12-29T14:36:42;95937.25;;;11.22;61.30
46724;BME280;32463;48.298;11.620;2022-12-29T14:39:41;95949.16;;;11.31;61.11
46724;BME280;32463;48.298;11.620;2022-12-29T14:44:52;95951.16;;;11.29;61.06
46724;BME280;32463;48.298;11.620;2022-12-29T14:47:23;95957.69;;;11.17;61.75
46724;BME280;32463;48.298;11.620;2022-12-29T14:49:54;95934.50;;;10.93;62.82
46724;BME280;32463;48.298;11.620;2022-12-29T14:52:24;95932.91;;;10.84;62.77
46724;BME280;32463;48.298;11.620;2022-12-29T14:55:28;95950.72;;;10.87;63.48
46724;BME280;32463;48.298;11.620;2022-12-29T14:57:51;95936.50;;;10.74;63.44
46724;BME280;32463;48.298;11.620;2022-12-29T15:00:23;95956.56;;;10.89;63.94
46724;BME280;32463;48.298;11.620;2022-12-29T15:05:37;95973.63;;;10.75;65.09
46724;BME280;32463;48.298;11.620;2022-12-29T15:08:07;95949.91;;;10.47;65.51
46724;BME280;32463;48.298;11.620;2022-12-29T15:10:43;95966.41;;;10.54;65.95
46724;BME280;32463;48.298;11.620;2022-12-29T15:13:18;95976.00;;;10.45;67.07
46724;BME280;32463;48.298;11.620;2022-12-29T15:15:48;95957.75;;;10.23;68.31